createdAt,value
2022-08-30T00:02:29.221Z,27.62
2022-08-30T00:04:29.145Z,27.62
2022-08-30T00:06:29.166Z,27.65
2022-08-30T00:09:29.181Z,27.53
2022-08-30T00:11:29.502Z,27.53
2022-08-30T00:14:29.174Z,27.45
2022-08-30T00:16:29.155Z,27.58
2022-08-30T00:19:29.164Z,27.58
2022-08-30T00:21:29.169Z,27.49
2022-08-30T00:24:29.207Z,27.34
2022-08-30T00:27:29.137Z,27.32
2022-08-30T00:29:29.168Z,27.4
2022-08-30T00:32:29.162Z,27.27
2022-08-30T00:35:29.160Z,27.24
2022-08-30T00:37:29.175Z,27.13
2022-08-30T00:40:29.221Z,27.18
2022-08-30T00:42:29.174Z,27.09
2022-08-30T00:45:29.209Z,27.21
2022-08-30T00:48:29.177Z,27.05
2022-08-30T00:50:29.185Z,26.98
2022-08-30T00:53:29.152Z,26.96
2022-08-30T00:56:29.175Z,26.92
2022-08-30T00:58:29.194Z,26.89
2022-08-30T01:01:30.298Z,26.75
2022-08-30T01:04:29.159Z,26.58
2022-08-30T01:06:32.397Z,26.52
2022-08-30T01:08:39.435Z,26.47
2022-08-30T01:10:39.463Z,26.45
2022-08-30T01:13:29.180Z,26.62
2022-08-30T01:15:29.205Z,26.6
2022-08-30T01:17:29.198Z,26.54
2022-08-30T01:20:29.197Z,26.42
2022-08-30T01:23:29.189Z,26.51
2022-08-30T01:25:29.197Z,26.5
2022-08-30T01:28:29.227Z,26.47
2022-08-30T01:31:29.166Z,26.48
2022-08-30T01:33:29.205Z,26.43
2022-08-30T01:36:29.178Z,26.34
2022-08-30T01:38:29.231Z,26.24
2022-08-30T01:41:29.212Z,26.29
2022-08-30T01:44:29.183Z,26.25
2022-08-30T01:46:29.221Z,26.11
2022-08-30T01:48:31.111Z,26.08
2022-08-30T01:51:29.166Z,25.9
2022-08-30T01:53:29.217Z,25.93
2022-08-30T01:55:29.214Z,25.96
2022-08-30T01:58:29.200Z,25.99
2022-08-30T02:00:29.207Z,26.14
2022-08-30T02:02:29.202Z,26.18
2022-08-30T02:04:29.220Z,26.14
2022-08-30T02:07:29.186Z,26.07
2022-08-30T02:10:29.211Z,25.89
2022-08-30T02:13:29.195Z,25.97
2022-08-30T02:15:30.209Z,26.08
2022-08-30T02:18:29.246Z,26.01
2022-08-30T02:21:29.207Z,25.98
2022-08-30T02:26:29.232Z,25.87
2022-08-30T02:28:29.208Z,25.65
2022-08-30T02:31:29.212Z,25.78
2022-08-30T02:34:29.219Z,25.77
2022-08-30T02:36:29.548Z,25.78
2022-08-30T02:39:29.194Z,25.66
2022-08-30T02:42:29.224Z,25.56
2022-08-30T02:45:29.213Z,25.53
2022-08-30T02:48:29.176Z,25.59
2022-08-30T02:50:29.221Z,25.55
2022-08-30T02:53:29.186Z,25.43
2022-08-30T02:55:29.437Z,25.46
2022-08-30T02:59:29.220Z,25.46
2022-08-30T03:02:29.226Z,25.54
2022-08-30T03:05:29.281Z,25.46
2022-08-30T03:08:29.189Z,25.49
2022-08-30T03:10:29.219Z,25.49
2022-08-30T03:12:29.509Z,25.4
2022-08-30T03:15:36.313Z,25.32
2022-08-30T03:18:29.206Z,25.23
2022-08-30T03:21:29.214Z,25.12
2022-08-30T03:23:29.208Z,25.12
2022-08-30T03:26:29.232Z,25.14
2022-08-30T03:29:29.199Z,25.12
2022-08-30T03:31:29.238Z,25.1
2022-08-30T03:34:29.225Z,24.96
2022-08-30T03:37:29.199Z,24.99
2022-08-30T03:39:29.242Z,24.94
2022-08-30T03:42:29.194Z,25.01
2022-08-30T03:44:29.221Z,24.95
2022-08-30T03:46:29.213Z,24.98
2022-08-30T03:49:29.249Z,24.89
2022-08-30T03:51:29.232Z,24.83
2022-08-30T03:54:29.240Z,24.89
2022-08-30T03:56:30.272Z,24.89
2022-08-30T03:59:29.250Z,24.86
2022-08-30T04:02:29.274Z,24.84
2022-08-30T04:04:29.222Z,24.79
2022-08-30T04:06:29.224Z,24.75
2022-08-30T04:09:29.232Z,24.7
2022-08-30T04:12:29.193Z,24.71
2022-08-30T04:14:29.234Z,24.71
2022-08-30T04:16:29.328Z,24.69
2022-08-30T04:19:29.224Z,24.65
2022-08-30T04:21:29.224Z,24.65
2022-08-30T04:24:29.818Z,24.63
2022-08-30T04:27:29.191Z,24.6
2022-08-30T04:29:29.257Z,24.65
2022-08-30T04:32:29.273Z,24.65
2022-08-30T04:35:29.232Z,24.66
2022-08-30T04:37:29.235Z,24.54
2022-08-30T04:40:29.266Z,24.57
2022-08-30T04:42:29.241Z,24.65
2022-08-30T04:45:29.263Z,24.51
2022-08-30T04:48:29.263Z,24.42
2022-08-30T04:51:29.241Z,24.29
2022-08-30T04:53:29.218Z,24.25
2022-08-30T04:55:29.270Z,24.2
2022-08-30T04:58:29.279Z,24.29
2022-08-30T05:00:30.117Z,24.39
2022-08-30T05:03:29.239Z,24.34
2022-08-30T05:06:29.233Z,24.07
2022-08-30T05:08:29.239Z,24.11
2022-08-30T05:10:29.257Z,24.25
2022-08-30T05:13:35.437Z,24.38
2022-08-30T05:16:29.329Z,24.3
2022-08-30T05:18:29.245Z,24.29
2022-08-30T05:21:29.235Z,24.23
2022-08-30T05:24:29.239Z,24.16
2022-08-30T05:26:29.279Z,24.25
2022-08-30T05:28:29.265Z,24.35
2022-08-30T05:31:29.343Z,24.36
2022-08-30T05:33:29.261Z,24.4
2022-08-30T05:35:29.285Z,24.35
2022-08-30T05:37:29.272Z,24.39
2022-08-30T05:40:29.370Z,24.33
2022-08-30T05:42:29.252Z,24.21
2022-08-30T05:45:29.295Z,24.16
2022-08-30T05:48:29.264Z,24.39
2022-08-30T05:50:29.298Z,24.47
2022-08-30T05:53:29.250Z,24.45
2022-08-30T05:55:29.331Z,24.51
2022-08-30T05:58:29.286Z,24.53
2022-08-30T06:01:29.310Z,24.47
2022-08-30T06:03:29.297Z,24.53
2022-08-30T06:06:29.255Z,24.46
2022-08-30T06:08:29.284Z,24.42
2022-08-30T06:10:29.283Z,24.49
2022-08-30T06:12:29.508Z,24.52
2022-08-30T06:15:29.278Z,24.48
2022-08-30T06:18:29.332Z,24.51
2022-08-30T06:21:29.266Z,24.59
2022-08-30T06:24:41.377Z,24.44
2022-08-30T06:27:29.269Z,24.51
2022-08-30T06:29:29.711Z,24.51
2022-08-30T06:32:29.306Z,24.48
2022-08-30T06:35:29.556Z,24.53
2022-08-30T06:38:29.206Z,24.58
2022-08-30T06:40:29.363Z,24.62
2022-08-30T06:43:29.234Z,24.74
2022-08-30T06:45:29.316Z,24.8
2022-08-30T06:48:29.341Z,24.94
2022-08-30T06:51:29.245Z,25.1
2022-08-30T06:53:29.263Z,25.11
2022-08-30T06:56:31.086Z,25.12
2022-08-30T06:58:29.285Z,25.13
2022-08-30T07:00:29.255Z,25.17
2022-08-30T07:02:29.309Z,25.17
2022-08-30T07:05:34.271Z,25.25
2022-08-30T07:08:29.265Z,25.33
2022-08-30T07:11:29.266Z,25.42
2022-08-30T07:13:29.273Z,25.44
2022-08-30T07:15:29.264Z,25.51
2022-08-30T07:17:32.554Z,25.55
2022-08-30T07:20:40.162Z,25.6
2022-08-30T07:23:29.270Z,25.63
2022-08-30T07:26:29.282Z,25.69
2022-08-30T07:29:29.266Z,25.74
2022-08-30T07:31:29.287Z,25.79
2022-08-30T07:34:29.280Z,25.8
2022-08-30T07:36:29.321Z,25.84
2022-08-30T07:39:29.398Z,25.91
2022-08-30T07:42:29.278Z,25.94
2022-08-30T07:44:29.310Z,25.99
2022-08-30T07:46:29.354Z,26.05
2022-08-30T07:49:29.296Z,26.12
2022-08-30T07:52:30.715Z,26.13
2022-08-30T07:54:29.297Z,26.16
2022-08-30T07:56:29.320Z,26.2
2022-08-30T07:59:30.863Z,26.24
2022-08-30T08:01:29.414Z,26.27
2022-08-30T08:03:29.316Z,26.32
2022-08-30T08:05:29.325Z,26.33
2022-08-30T08:07:29.332Z,26.38
2022-08-30T08:10:29.329Z,26.48
2022-08-30T08:13:32.711Z,26.54
2022-08-30T08:15:29.335Z,26.59
2022-08-30T08:17:29.314Z,26.64
2022-08-30T08:20:29.306Z,26.68
2022-08-30T08:23:29.316Z,26.72
2022-08-30T08:26:29.329Z,26.7
2022-08-30T08:28:29.307Z,26.77
2022-08-30T08:31:33.096Z,26.85
2022-08-30T08:33:29.299Z,26.87
2022-08-30T08:36:29.333Z,26.91
2022-08-30T08:38:29.390Z,26.87
2022-08-30T08:41:29.338Z,26.91
2022-08-30T08:43:29.290Z,27
2022-08-30T08:45:29.325Z,27.04
2022-08-30T08:48:35.816Z,27.08
2022-08-30T08:51:29.301Z,27.05
2022-08-30T08:53:45.680Z,27.09
2022-08-30T08:55:29.291Z,27.13
2022-08-30T08:58:29.351Z,27.19
2022-08-30T09:00:29.339Z,27.22
2022-08-30T09:03:29.326Z,27.26
2022-08-30T09:05:29.323Z,27.25
2022-08-30T09:07:29.371Z,27.29
2022-08-30T09:10:47.433Z,27.32
2022-08-30T09:13:29.362Z,27.39
2022-08-30T09:16:29.415Z,27.48
2022-08-30T09:18:29.342Z,27.51
2022-08-30T09:21:29.335Z,27.51
2022-08-30T09:23:29.324Z,27.51
2022-08-30T09:26:29.349Z,27.56
2022-08-30T09:29:29.348Z,27.61
2022-08-30T09:31:29.363Z,27.63
2022-08-30T09:33:29.320Z,27.58
2022-08-30T09:36:29.395Z,27.61
2022-08-30T09:38:29.347Z,27.68
2022-08-30T09:40:29.442Z,27.74
2022-08-30T09:43:29.328Z,27.84
2022-08-30T09:45:29.339Z,27.86
2022-08-30T09:48:29.369Z,27.91
2022-08-30T09:51:29.351Z,27.9
2022-08-30T09:54:30.259Z,27.93
2022-08-30T09:57:30.037Z,28.01
2022-08-30T10:00:29.416Z,28.07
2022-08-30T10:03:36.052Z,28.11
2022-08-30T10:05:29.339Z,28.14
2022-08-30T10:07:29.339Z,28.15
2022-08-30T10:09:29.352Z,28.19
2022-08-30T10:11:29.375Z,28.27
2022-08-30T10:13:29.359Z,28.31
2022-08-30T10:15:29.368Z,28.35
2022-08-30T10:18:29.331Z,28.44
2022-08-30T10:21:29.339Z,28.5
2022-08-30T10:24:33.289Z,28.57
2022-08-30T10:27:29.337Z,28.65
2022-08-30T10:29:29.327Z,28.68
2022-08-30T10:32:29.371Z,28.77
2022-08-30T10:35:34.032Z,28.82
2022-08-30T10:37:29.327Z,28.85
2022-08-30T10:39:30.858Z,28.88
2022-08-30T10:42:29.369Z,28.93
2022-08-30T10:45:29.342Z,29.02
2022-08-30T10:47:30.241Z,29.08
2022-08-30T10:49:29.677Z,29.12
2022-08-30T10:52:29.783Z,29.18
2022-08-30T10:55:29.367Z,29.19
2022-08-30T10:58:29.514Z,29.22
2022-08-30T11:01:29.383Z,29.28
2022-08-30T11:04:29.377Z,29.4
2022-08-30T11:07:29.330Z,29.49
2022-08-30T11:10:29.352Z,29.59
2022-08-30T11:13:29.359Z,29.7
2022-08-30T11:16:29.370Z,29.81
2022-08-30T11:18:29.358Z,29.91
2022-08-30T11:21:29.347Z,30.15
2022-08-30T11:24:29.363Z,30.34
2022-08-30T11:27:29.339Z,30.49
2022-08-30T11:29:29.383Z,30.55
2022-08-30T11:31:29.361Z,30.64
2022-08-30T11:34:30.001Z,30.8
2022-08-30T11:36:37.203Z,30.91
2022-08-30T11:39:29.378Z,31.03
2022-08-30T11:42:29.928Z,31.13
2022-08-30T11:44:29.409Z,31.15
2022-08-30T11:47:29.384Z,31.17
2022-08-30T11:50:29.427Z,31.14
2022-08-30T11:53:29.378Z,31.13
2022-08-30T11:55:29.404Z,31.12
2022-08-30T11:58:36.591Z,31.16
2022-08-30T12:01:42.152Z,31.2
2022-08-30T12:03:29.582Z,31.21
2022-08-30T12:05:29.439Z,31.2
2022-08-30T12:08:29.370Z,31.23
2022-08-30T12:10:29.403Z,31.28
2022-08-30T12:13:29.385Z,31.39
2022-08-30T12:17:29.374Z,31.56
2022-08-30T12:19:29.416Z,31.67
2022-08-30T12:21:29.389Z,31.8
2022-08-30T12:24:29.365Z,31.96
2022-08-30T12:26:29.489Z,32.09
2022-08-30T12:28:29.543Z,32.18
2022-08-30T12:31:29.416Z,32.38
2022-08-30T12:33:30.336Z,32.55
2022-08-30T12:36:23.797Z,32.71
2022-08-30T12:38:29.436Z,32.8
2022-08-30T12:41:29.398Z,32.87
2022-08-30T12:43:38.794Z,32.93
2022-08-30T12:45:29.449Z,33.02
2022-08-30T12:48:29.427Z,33.2
2022-08-30T12:51:29.431Z,33.33
2022-08-30T12:54:29.426Z,33.34
2022-08-30T12:57:35.076Z,33.54
2022-08-30T13:00:29.404Z,33.59
2022-08-30T13:02:29.449Z,33.59
2022-08-30T13:04:29.417Z,33.59
2022-08-30T13:07:29.382Z,33.64
2022-08-30T13:09:32.213Z,33.64
2022-08-30T13:11:29.742Z,33.68
2022-08-30T13:14:29.390Z,33.75
2022-08-30T13:17:29.400Z,33.82
2022-08-30T13:20:29.411Z,33.89
2022-08-30T13:23:29.380Z,33.95
2022-08-30T13:25:29.393Z,34.09
2022-08-30T13:27:29.409Z,34.14
2022-08-30T13:30:29.406Z,34.24
2022-08-30T13:33:29.411Z,34.32
2022-08-30T13:36:29.403Z,34.34
2022-08-30T13:38:29.393Z,34.41
2022-08-30T13:40:29.452Z,34.5
2022-08-30T13:43:29.406Z,34.61
2022-08-30T13:45:42.930Z,34.74
2022-08-30T13:47:33.154Z,34.86
2022-08-30T13:50:30.469Z,34.96
2022-08-30T13:53:53.943Z,35.08
2022-08-30T13:56:29.393Z,35.09
2022-08-30T13:59:29.453Z,35.09
2022-08-30T14:02:29.454Z,35.12
2022-08-30T14:05:48.674Z,35.15
2022-08-30T14:08:46.150Z,35.18
2022-08-30T14:10:31.135Z,35.24
2022-08-30T14:13:29.633Z,35.4
2022-08-30T14:15:29.459Z,35.49
2022-08-30T14:17:29.467Z,35.52
2022-08-30T14:20:29.473Z,35.56
2022-08-30T14:22:29.500Z,35.59
2022-08-30T14:25:29.444Z,35.65
2022-08-30T14:27:29.430Z,35.7
2022-08-30T14:29:29.445Z,35.73
2022-08-30T14:32:29.426Z,35.81
2022-08-30T14:34:29.629Z,36
2022-08-30T14:37:29.434Z,36.11
2022-08-30T14:39:29.451Z,36.13
2022-08-30T14:42:29.408Z,36.22
2022-08-30T14:44:37.513Z,36.49
2022-08-30T14:47:30.036Z,36.54
2022-08-30T14:50:29.425Z,36.58
2022-08-30T14:53:29.466Z,36.64
2022-08-30T14:56:29.435Z,36.68
2022-08-30T14:59:29.469Z,36.75
2022-08-30T15:02:29.458Z,36.9
2022-08-30T15:04:29.488Z,36.93
2022-08-30T15:06:29.452Z,36.91
2022-08-30T15:08:29.482Z,36.88
2022-08-30T15:12:29.438Z,36.84
2022-08-30T15:14:29.431Z,36.79
2022-08-30T15:17:29.440Z,36.77
2022-08-30T15:19:29.443Z,36.8
2022-08-30T15:21:29.587Z,36.84
2022-08-30T15:24:30.092Z,36.83
2022-08-30T15:26:29.477Z,36.89
2022-08-30T15:28:29.502Z,36.83
2022-08-30T15:31:29.495Z,36.72
2022-08-30T15:33:29.508Z,36.59
2022-08-30T15:35:29.501Z,36.46
2022-08-30T15:38:29.521Z,36.32
2022-08-30T15:41:29.500Z,36.34
2022-08-30T15:43:29.493Z,36.25
2022-08-30T15:46:30.151Z,36.18
2022-08-30T15:49:29.425Z,36.2
2022-08-30T15:51:30.748Z,36.2
2022-08-30T15:53:29.500Z,36.16
2022-08-30T15:55:29.516Z,36.14
2022-08-30T15:57:29.511Z,36.09
2022-08-30T16:00:29.618Z,35.93
2022-08-30T16:03:29.520Z,35.83
2022-08-30T16:06:29.507Z,35.74
2022-08-30T16:09:29.931Z,35.58
2022-08-30T16:11:29.489Z,35.47
2022-08-30T16:14:29.527Z,35.31
2022-08-30T16:17:29.546Z,35.21
2022-08-30T16:20:29.507Z,35.14
2022-08-30T16:22:29.496Z,35.12
2022-08-30T16:25:39.859Z,35.09
2022-08-30T16:27:29.530Z,35.11
2022-08-30T16:30:29.576Z,35.15
2022-08-30T16:33:29.508Z,35.21
2022-08-30T16:35:29.518Z,35.25
2022-08-30T16:37:29.544Z,35.27
2022-08-30T16:40:29.593Z,35.27
2022-08-30T16:43:29.481Z,35.25
2022-08-30T16:45:33.025Z,35.25
2022-08-30T16:48:29.491Z,35.23
2022-08-30T16:51:29.526Z,35.13
2022-08-30T16:53:29.555Z,35.03
2022-08-30T16:56:29.851Z,34.86
2022-08-30T16:59:29.506Z,34.74
2022-08-30T17:01:29.557Z,34.66
2022-08-30T17:04:29.504Z,34.65
2022-08-30T17:06:29.523Z,34.59
2022-08-30T17:09:29.532Z,34.49
2022-08-30T17:12:29.531Z,34.4
2022-08-30T17:14:29.526Z,34.36
2022-08-30T17:16:29.664Z,34.3
2022-08-30T17:19:29.555Z,34.22
2022-08-30T17:21:29.569Z,34.15
2022-08-30T17:24:29.509Z,34.08
2022-08-30T17:26:29.552Z,34.02
2022-08-30T17:28:29.536Z,33.97
2022-08-30T17:30:29.546Z,33.91
2022-08-30T17:33:29.514Z,33.82
2022-08-30T17:36:29.534Z,33.74
2022-08-30T17:38:29.542Z,33.68
2022-08-30T17:41:29.550Z,33.59
2022-08-30T17:44:29.575Z,33.54
2022-08-30T17:46:29.599Z,33.5
2022-08-30T17:49:29.592Z,33.43
2022-08-30T17:52:29.553Z,33.37
2022-08-30T17:55:30.750Z,33.28
2022-08-30T17:57:29.663Z,33.27
2022-08-30T18:00:29.588Z,33.2
2022-08-30T18:03:29.565Z,33.15
2022-08-30T18:05:29.565Z,33.08
2022-08-30T18:08:29.522Z,33.04
2022-08-30T18:10:31.473Z,32.99
2022-08-30T18:12:29.542Z,32.95
2022-08-30T18:14:29.533Z,32.91
2022-08-30T18:17:29.552Z,32.88
2022-08-30T18:20:31.268Z,32.84
2022-08-30T18:22:29.610Z,32.82
2022-08-30T18:25:29.871Z,32.75
2022-08-30T18:28:29.527Z,32.68
2022-08-30T18:30:33.372Z,32.65
2022-08-30T18:32:32.853Z,32.62
2022-08-30T18:34:29.550Z,32.59
2022-08-30T18:37:29.549Z,32.52
2022-08-30T18:40:29.628Z,32.48
2022-08-30T18:42:29.759Z,32.46
2022-08-30T18:45:29.549Z,32.43
2022-08-30T18:48:29.547Z,32.4
2022-08-30T18:50:29.556Z,32.4
2022-08-30T18:52:29.613Z,32.36
2022-08-30T18:54:29.599Z,32.3
2022-08-30T18:57:29.577Z,32.25
2022-08-30T19:00:29.596Z,32.22
2022-08-30T19:03:34.598Z,32.21
2022-08-30T19:05:29.602Z,32.14
2022-08-30T19:08:29.567Z,32.09
2022-08-30T19:10:29.595Z,32.06
2022-08-30T19:12:29.578Z,32.03
2022-08-30T19:14:29.588Z,32
2022-08-30T19:17:29.584Z,31.98
2022-08-30T19:20:29.556Z,31.94
2022-08-30T19:22:36.059Z,31.89
2022-08-30T19:25:29.619Z,31.88
2022-08-30T19:28:29.587Z,31.83
2022-08-30T19:30:30.149Z,31.8
2022-08-30T19:33:29.577Z,31.8
2022-08-30T19:36:29.585Z,31.76
2022-08-30T19:38:29.621Z,31.75
2022-08-30T19:41:29.648Z,31.74
2022-08-30T19:44:29.605Z,31.7
2022-08-30T19:46:29.629Z,31.72
2022-08-30T19:49:29.565Z,31.69
2022-08-30T19:51:29.622Z,31.67
2022-08-30T19:54:29.614Z,31.66
2022-08-30T19:57:29.570Z,31.68
2022-08-30T19:59:29.562Z,31.67
2022-08-30T20:01:32.574Z,31.68
2022-08-30T20:04:29.586Z,31.63
2022-08-30T20:06:29.550Z,31.6
2022-08-30T20:08:29.612Z,31.58
2022-08-30T20:11:29.595Z,31.57
2022-08-30T20:13:29.625Z,31.56
2022-08-30T20:16:35.506Z,31.53
2022-08-30T20:19:29.601Z,31.54
2022-08-30T20:22:29.589Z,31.52
2022-08-30T20:24:29.633Z,31.47
2022-08-30T20:27:29.629Z,31.47
2022-08-30T20:29:29.599Z,31.44
2022-08-30T20:32:29.607Z,31.4
2022-08-30T20:34:29.615Z,31.37
2022-08-30T20:36:29.640Z,31.37
2022-08-30T20:39:29.608Z,31.36
2022-08-30T20:41:29.620Z,31.36
2022-08-30T20:43:29.635Z,31.32
2022-08-30T20:45:30.756Z,31.31
2022-08-30T20:48:29.684Z,31.28
2022-08-30T20:50:29.677Z,31.25
2022-08-30T20:53:29.657Z,31.24
2022-08-30T20:56:29.632Z,31.26
2022-08-30T20:58:29.662Z,31.2
2022-08-30T21:00:29.682Z,31.16
2022-08-30T21:03:29.601Z,31.14
2022-08-30T21:05:36.843Z,31.17
2022-08-30T21:07:29.701Z,31.15
2022-08-30T21:10:29.596Z,31.11
2022-08-30T21:12:29.633Z,31.09
2022-08-30T21:14:29.662Z,31.08
2022-08-30T21:17:29.668Z,31.06
2022-08-30T21:20:29.669Z,31.01
2022-08-30T21:23:29.602Z,30.97
2022-08-30T21:25:29.851Z,30.94
2022-08-30T21:28:29.625Z,30.91
2022-08-30T21:30:29.728Z,30.91
2022-08-30T21:33:29.637Z,30.9
2022-08-30T21:35:29.620Z,30.88
2022-08-30T21:37:32.009Z,30.84
2022-08-30T21:40:30.059Z,30.84
2022-08-30T21:43:29.656Z,30.84
2022-08-30T21:46:29.723Z,30.88
2022-08-30T21:49:29.616Z,30.85
2022-08-30T21:51:29.628Z,30.81
2022-08-30T21:53:29.661Z,30.78
2022-08-30T21:56:29.641Z,30.77
2022-08-30T21:59:29.638Z,30.78
2022-08-30T22:01:29.700Z,30.74
2022-08-30T22:04:29.669Z,30.72
2022-08-30T22:07:29.648Z,30.7
2022-08-30T22:10:32.961Z,30.61
2022-08-30T22:13:29.650Z,30.59
2022-08-30T22:16:29.731Z,30.53
2022-08-30T22:18:29.660Z,30.53
2022-08-30T22:20:30.457Z,30.56
2022-08-30T22:23:29.649Z,30.48
2022-08-30T22:26:29.646Z,30.51
2022-08-30T22:29:29.681Z,30.49
2022-08-30T22:31:29.721Z,30.5
2022-08-30T22:34:29.654Z,30.53
2022-08-30T22:37:29.643Z,30.5
2022-08-30T22:39:29.669Z,30.42
2022-08-30T22:42:29.652Z,30.35
2022-08-30T22:45:29.687Z,30.29
2022-08-30T22:47:29.658Z,30.27
2022-08-30T22:49:29.686Z,30.28
2022-08-30T22:52:29.643Z,30.31
2022-08-30T22:54:29.637Z,30.31
2022-08-30T22:57:29.688Z,30.26
2022-08-30T22:59:31.349Z,30.23
2022-08-30T23:02:29.720Z,30.18
2022-08-30T23:04:29.684Z,30.11
2022-08-30T23:07:29.666Z,30.06
2022-08-30T23:09:29.683Z,30.03
2022-08-30T23:11:30.630Z,29.99
2022-08-30T23:14:29.677Z,29.94
2022-08-30T23:16:29.708Z,29.95
2022-08-30T23:19:29.687Z,29.93
2022-08-30T23:21:29.701Z,29.92
2022-08-30T23:23:29.691Z,29.95
2022-08-30T23:25:30.179Z,29.96
2022-08-30T23:28:30.431Z,29.89
2022-08-30T23:31:29.750Z,29.92
2022-08-30T23:33:29.708Z,29.91
2022-08-30T23:36:29.714Z,29.93
2022-08-30T23:38:29.710Z,29.92
2022-08-30T23:40:29.786Z,29.93
2022-08-30T23:43:29.688Z,29.84
2022-08-30T23:45:29.758Z,29.82
2022-08-30T23:48:29.683Z,29.81
2022-08-30T23:50:29.702Z,29.8
2022-08-30T23:53:29.701Z,29.81
2022-08-30T23:55:29.700Z,29.85
2022-08-30T23:58:29.730Z,29.91
